Time;durP1;ratioP1;P1;durP2;ratioP2;P2;SDS_P1;SDS_P2;PMS_P1;PMS_P2;Temp;Humidity;BMP_temperature;BMP_pressure;BME280_temperature;BME280_humidity;BME280_pressure;Samples;Min_cycle;Max_cycle;Signal;HPM_P1;HPM_P2
2021/11/26 00:00:06;;;;;;;4.90;1.95;;;-8.50;99.90;;;;;;5113387;28;20463;-67
2021/11/26 00:02:32;;;;;;;3.42;1.73;;;-8.50;99.90;;;;;;5113391;28;20028;-67
2021/11/26 00:04:58;;;;;;;4.28;1.85;;;-8.50;99.90;;;;;;5113493;28;20032;-67
2021/11/26 00:07:24;;;;;;;3.40;1.98;;;-8.50;99.90;;;;;;5113521;28;20099;-67
2021/11/26 00:09:52;;;;;;;3.47;1.70;;;-8.50;99.90;;;;;;5113062;28;20028;-67
2021/11/26 00:12:19;;;;;;;4.75;2.10;;;-8.60;99.90;;;;;;5113302;28;20023;-67
2021/11/26 00:15:02;;;;;;;5.55;2.50;;;-8.60;99.90;;;;;;5113113;28;20494;-67
2021/11/26 00:17:32;;;;;;;4.85;2.00;;;-8.70;99.90;;;;;;5113065;28;20027;-67
2021/11/26 00:19:58;;;;;;;2.30;2.10;;;-8.80;99.90;;;;;;5113198;28;20036;-68
2021/11/26 00:22:23;;;;;;;1.92;1.83;;;-8.80;99.90;;;;;;5113148;28;20273;-67
2021/11/26 00:24:49;;;;;;;4.85;1.98;;;-8.80;99.90;;;;;;5113143;28;20425;-67
2021/11/26 00:27:15;;;;;;;2.80;1.70;;;-8.80;99.90;;;;;;5112855;28;20023;-65
2021/11/26 00:29:41;;;;;;;3.65;2.03;;;-8.80;99.90;;;;;;5105332;28;20035;-64
2021/11/26 00:32:07;;;;;;;5.07;1.52;;;-8.80;99.90;;;;;;5112978;28;20161;-64
2021/11/26 00:34:32;;;;;;;1.88;1.65;;;-8.80;99.90;;;;;;5112921;28;20039;-64
2021/11/26 00:36:58;;;;;;;3.90;2.00;;;-8.80;99.90;;;;;;5113042;28;20015;-64
2021/11/26 00:39:24;;;;;;;2.05;1.83;;;-8.80;99.90;;;;;;5106438;28;20529;-64
2021/11/26 00:41:50;;;;;;;5.53;2.13;;;-8.80;99.90;;;;;;5104905;28;20115;-64
2021/11/26 00:44:16;;;;;;;2.53;1.88;;;-8.80;99.90;;;;;;5112803;28;20020;-64
2021/11/26 00:46:41;;;;;;;3.28;1.92;;;-8.90;99.90;;;;;;5113071;28;20027;-64
2021/11/26 00:49:07;;;;;;;2.55;1.90;;;-8.90;99.90;;;;;;5112710;28;20035;-64
2021/11/26 00:51:33;;;;;;;1.63;1.52;;;-9.00;99.90;;;;;;5112955;28;20041;-64
2021/11/26 00:53:59;;;;;;;4.50;2.05;;;-9.10;99.90;;;;;;5112601;28;20019;-64
2021/11/26 00:56:25;;;;;;;6.43;2.47;;;-9.10;99.90;;;;;;5068483;28;1242925;-64
2021/11/26 00:58:51;;;;;;;1.83;1.63;;;-9.00;99.90;;;;;;5113739;28;20031;-64
2021/11/26 01:01:17;;;;;;;7.10;2.10;;;-9.00;99.90;;;;;;5113348;28;20363;-64
2021/11/26 01:03:43;;;;;;;4.80;2.20;;;-9.00;99.90;;;;;;5113428;28;20491;-64
2021/11/26 01:06:09;;;;;;;5.00;1.95;;;-9.10;99.90;;;;;;5113522;28;20035;-64
2021/11/26 01:08:35;;;;;;;2.92;1.95;;;-9.10;99.90;;;;;;5113290;27;20504;-64
2021/11/26 01:11:01;;;;;;;5.15;2.30;;;-9.20;99.90;;;;;;5112404;27;20059;-64
2021/11/26 01:13:28;;;;;;;3.03;2.28;;;-9.30;99.90;;;;;;5113092;28;20596;-64
2021/11/26 01:15:54;;;;;;;2.60;1.90;;;-9.30;99.90;;;;;;5113055;28;20028;-64
2021/11/26 01:18:21;;;;;;;5.00;1.88;;;-9.40;99.90;;;;;;5113266;28;20424;-64
2021/11/26 01:20:48;;;;;;;4.03;2.15;;;-9.40;99.90;;;;;;5113111;28;20020;-64
2021/11/26 01:23:14;;;;;;;3.28;2.28;;;-9.40;99.90;;;;;;5113024;27;20024;-64
2021/11/26 01:25:40;;;;;;;4.07;1.95;;;-9.40;99.90;;;;;;5113377;28;20026;-64
2021/11/26 01:28:07;;;;;;;4.40;1.95;;;-9.40;99.90;;;;;;5113287;28;20067;-64
2021/11/26 01:30:39;;;;;;;6.10;2.10;;;-9.40;99.90;;;;;;5112817;28;20035;-64
2021/11/26 01:33:08;;;;;;;5.43;2.25;;;-9.50;99.90;;;;;;5113000;28;20024;-64
2021/11/26 01:35:35;;;;;;;5.60;2.55;;;-9.50;99.90;;;;;;5107420;28;20027;-64
2021/11/26 01:38:01;;;;;;;9.10;3.55;;;-9.50;99.90;;;;;;5106055;28;20495;-64
2021/11/26 01:40:27;;;;;;;6.50;3.63;;;-9.50;99.90;;;;;;5108269;28;20027;-64
2021/11/26 01:42:55;;;;;;;6.22;3.33;;;-9.60;99.90;;;;;;5104054;28;20379;-65
2021/11/26 01:45:21;;;;;;;7.90;3.90;;;-9.60;99.70;;;;;;5112412;28;20026;-65
2021/11/26 01:47:47;;;;;;;4.88;3.53;;;-9.70;99.90;;;;;;5112389;28;20105;-64
2021/11/26 01:50:16;;;;;;;6.80;3.53;;;-9.70;99.90;;;;;;5112382;28;20134;-65
2021/11/26 01:52:42;;;;;;;6.43;3.10;;;-9.70;99.90;;;;;;5111438;28;20019;-65
2021/11/26 01:55:11;;;;;;;4.47;2.95;;;-9.70;99.90;;;;;;5112540;28;20076;-65
2021/11/26 01:57:37;;;;;;;3.55;2.33;;;-9.70;99.90;;;;;;5112264;28;20043;-65
2021/11/26 02:00:10;;;;;;;4.45;2.65;;;-9.70;99.90;;;;;;5112501;27;20665;-65
2021/11/26 02:02:36;;;;;;;3.42;2.45;;;-9.70;99.90;;;;;;5112519;28;20023;-65
2021/11/26 02:05:02;;;;;;;4.50;2.20;;;-9.90;99.90;;;;;;5112130;28;20566;-65
2021/11/26 02:07:28;;;;;;;2.70;2.40;;;-10.00;99.90;;;;;;5112130;28;20120;-65
2021/11/26 02:09:54;;;;;;;4.90;2.65;;;-10.00;99.90;;;;;;5112185;28;20052;-65
2021/11/26 02:12:20;;;;;;;7.57;2.63;;;-10.00;99.90;;;;;;5112499;28;20051;-65
2021/11/26 02:14:46;;;;;;;3.55;2.60;;;-10.00;99.90;;;;;;5112162;28;20522;-67
2021/11/26 02:17:13;;;;;;;5.15;2.50;;;-10.00;99.90;;;;;;5112059;28;20027;-66
2021/11/26 02:19:39;;;;;;;3.95;2.22;;;-10.00;99.90;;;;;;5111917;28;20065;-65
2021/11/26 02:22:05;;;;;;;3.83;2.28;;;-9.90;99.90;;;;;;5111843;28;20034;-66
2021/11/26 02:24:31;;;;;;;3.13;2.30;;;-9.90;99.90;;;;;;5111905;28;20027;-66
2021/11/26 02:56:02;;;;;;;4.72;2.75;;;-9.40;99.90;;;;;;5111595;28;20027;-65
2021/11/26 02:58:27;;;;;;;4.85;2.50;;;-9.40;99.90;;;;;;5111814;28;20077;-65
2021/11/26 03:00:55;;;;;;;6.53;2.65;;;-9.40;99.90;;;;;;5111760;28;20068;-67
2021/11/26 03:03:21;;;;;;;5.85;2.47;;;-9.40;99.90;;;;;;5112006;28;20019;-66
2021/11/26 03:05:47;;;;;;;4.65;2.40;;;-9.40;99.90;;;;;;5111780;28;20103;-67
2021/11/26 03:08:13;;;;;;;3.22;2.13;;;-9.40;99.90;;;;;;5111813;28;20051;-66
2021/11/26 03:10:40;;;;;;;7.68;2.45;;;-9.40;99.90;;;;;;5111511;28;20122;-67
2021/11/26 03:13:09;;;;;;;6.78;2.20;;;-9.50;99.90;;;;;;5111744;28;20034;-66
2021/11/26 03:15:38;;;;;;;8.02;2.80;;;-9.50;99.90;;;;;;5111391;28;20027;-66
2021/11/26 03:18:04;;;;;;;2.90;2.33;;;-9.50;99.90;;;;;;5111552;28;20031;-66
2021/11/26 03:20:31;;;;;;;3.65;2.10;;;-9.50;99.90;;;;;;5111559;28;20020;-66
2021/11/26 03:22:57;;;;;;;6.43;2.97;;;-9.40;99.90;;;;;;5112047;28;20072;-66
2021/11/26 03:25:24;;;;;;;5.47;2.67;;;-9.40;99.90;;;;;;5111267;28;20016;-66
2021/11/26 03:27:50;;;;;;;5.53;2.60;;;-9.40;99.90;;;;;;5111814;28;20031;-66
2021/11/26 03:30:19;;;;;;;3.50;2.63;;;-9.30;99.90;;;;;;5111088;28;20396;-66
2021/11/26 03:32:45;;;;;;;3.55;2.30;;;-9.30;99.90;;;;;;5111862;28;20019;-66
2021/11/26 03:35:12;;;;;;;5.75;2.40;;;-9.20;99.90;;;;;;5115459;28;20165;-66
2021/11/26 03:37:38;;;;;;;6.07;2.28;;;-9.20;99.90;;;;;;5115211;28;20020;-66
2021/11/26 03:40:06;;;;;;;4.70;2.38;;;-9.10;99.90;;;;;;5114806;28;20383;-66
2021/11/26 03:42:32;;;;;;;6.65;2.72;;;-9.10;99.90;;;;;;5114859;28;20540;-66
2021/11/26 03:44:58;;;;;;;4.75;2.30;;;-9.10;99.90;;;;;;5114769;28;20028;-65
2021/11/26 03:47:25;;;;;;;3.75;2.75;;;-9.10;99.90;;;;;;5099020;28;20082;-66
2021/11/26 03:49:51;;;;;;;5.13;2.35;;;-9.10;99.90;;;;;;5115094;28;20036;-67
2021/11/26 03:52:17;;;;;;;5.68;2.63;;;-9.20;99.90;;;;;;5114880;28;20085;-67
2021/11/26 03:54:43;;;;;;;4.50;2.20;;;-9.10;99.90;;;;;;5114913;28;20023;-67
2021/11/26 03:57:09;;;;;;;3.97;2.75;;;-9.10;99.90;;;;;;5114745;28;20499;-67
2021/11/26 03:59:35;;;;;;;3.53;2.05;;;-9.10;99.90;;;;;;5114400;28;20051;-67
2021/11/26 04:02:02;;;;;;;3.92;2.03;;;-9.20;99.90;;;;;;5114551;28;20054;-67
2021/11/26 04:04:27;;;;;;;4.13;2.13;;;-9.20;99.90;;;;;;5114426;28;20631;-67
2021/11/26 04:06:53;;;;;;;3.85;2.38;;;-9.10;99.90;;;;;;5114620;28;20038;-66
2021/11/26 04:09:19;;;;;;;5.28;2.50;;;-9.10;99.90;;;;;;5114657;28;20043;-65
2021/11/26 04:11:44;;;;;;;3.33;1.85;;;-9.20;99.90;;;;;;5114344;28;20023;-67
2021/11/26 04:14:10;;;;;;;3.50;1.98;;;-9.20;99.90;;;;;;5114471;28;20031;-66
2021/11/26 04:16:36;;;;;;;3.80;2.15;;;-9.20;99.90;;;;;;5114157;28;20467;-67
2021/11/26 04:19:05;;;;;;;4.80;2.35;;;-9.30;99.90;;;;;;5114493;28;20029;-68
2021/11/26 04:21:32;;;;;;;4.00;2.22;;;-9.30;99.90;;;;;;5114173;28;20027;-67
2021/11/26 04:23:59;;;;;;;3.67;2.13;;;-9.40;99.90;;;;;;5114321;28;20028;-67
2021/11/26 04:26:25;;;;;;;2.90;2.03;;;-9.40;99.90;;;;;;5113956;28;20542;-67
2021/11/26 04:28:51;;;;;;;3.38;2.03;;;-9.40;99.90;;;;;;5114373;28;20115;-67
2021/11/26 04:31:17;;;;;;;2.58;2.10;;;-9.40;99.90;;;;;;5114324;28;20032;-67
2021/11/26 04:33:43;;;;;;;4.32;2.03;;;-9.40;99.90;;;;;;5114293;28;20160;-67
2021/11/26 04:36:08;;;;;;;3.60;2.33;;;-9.30;99.90;;;;;;5113982;27;20080;-67
2021/11/26 04:38:34;;;;;;;5.47;2.20;;;-9.30;99.90;;;;;;5113793;28;20072;-67
2021/11/26 04:41:00;;;;;;;4.75;2.50;;;-9.30;99.90;;;;;;5113947;28;20043;-67
2021/11/26 04:43:26;;;;;;;5.63;2.22;;;-9.30;99.90;;;;;;5113552;28;20490;-67
2021/11/26 04:45:52;;;;;;;3.65;2.10;;;-9.30;99.90;;;;;;5112747;28;20073;-67
2021/11/26 04:48:24;;;;;;;5.88;2.97;;;-9.40;99.90;;;;;;5113937;28;20034;-67
2021/11/26 04:50:50;;;;;;;3.15;2.10;;;-9.40;99.90;;;;;;5113613;28;20035;-67
2021/11/26 04:53:17;;;;;;;3.75;2.20;;;-9.40;99.90;;;;;;5114099;28;20018;-67
2021/11/26 04:55:43;;;;;;;2.40;2.00;;;-9.40;99.90;;;;;;5113746;28;20053;-68
2021/11/26 04:58:08;;;;;;;3.65;2.25;;;-9.50;99.90;;;;;;5113472;28;20503;-66
2021/11/26 05:00:34;;;;;;;3.00;1.95;;;-9.60;99.90;;;;;;5113596;28;20032;-66
2021/11/26 05:03:00;;;;;;;3.13;2.30;;;-9.70;99.90;;;;;;5112124;28;20384;-66
2021/11/26 05:05:26;;;;;;;3.10;2.03;;;-9.70;99.90;;;;;;5113565;28;20024;-66
2021/11/26 05:07:53;;;;;;;5.22;2.10;;;-9.80;99.90;;;;;;5113629;28;20475;-66
2021/11/26 05:10:20;;;;;;;3.65;2.33;;;-9.70;99.90;;;;;;5113352;28;20031;-66
2021/11/26 05:12:53;;;;;;;5.32;2.40;;;-9.80;99.90;;;;;;5113364;28;20016;-66
2021/11/26 05:15:26;;;;;;;4.85;2.13;;;-9.80;99.90;;;;;;5113093;28;20031;-66
2021/11/26 05:17:52;;;;;;;2.97;1.88;;;-9.80;99.90;;;;;;5113158;28;20102;-66
2021/11/26 05:20:18;;;;;;;3.03;1.92;;;-9.90;99.90;;;;;;5112958;28;20490;-66
2021/11/26 05:22:44;;;;;;;3.92;1.80;;;-9.90;99.90;;;;;;5113429;28;20020;-67
2021/11/26 05:25:10;;;;;;;2.83;1.83;;;-10.00;99.90;;;;;;5112907;28;20509;-66
2021/11/26 05:27:35;;;;;;;5.47;2.53;;;-10.00;99.90;;;;;;5112811;28;20064;-66
2021/11/26 05:30:02;;;;;;;3.38;1.92;;;-10.10;99.90;;;;;;5112674;28;20035;-65
2021/11/26 05:32:28;;;;;;;3.80;1.92;;;-10.10;99.90;;;;;;5112879;28;20485;-65
2021/11/26 05:34:53;;;;;;;2.88;2.22;;;-10.10;99.90;;;;;;5112846;28;20106;-64
2021/11/26 05:37:19;;;;;;;2.60;2.22;;;-10.10;99.50;;;;;;5098297;28;20076;-63
2021/11/26 05:39:45;;;;;;;1.48;1.38;;;-10.20;99.30;;;;;;5112488;28;20031;-63
2021/11/26 05:42:10;;;;;;;2.97;2.25;;;-9.70;99.90;;;;;;5112455;28;20038;-63
2021/11/26 05:44:36;;;;;;;8.07;2.80;;;-8.60;99.90;;;;;;5111886;28;20471;-63
2021/11/26 05:47:02;;;;;;;3.33;2.40;;;-8.70;99.90;;;;;;5105633;28;20020;-64
2021/11/26 05:49:28;;;;;;;3.80;1.92;;;-9.20;99.90;;;;;;5094309;28;20379;-64
2021/11/26 05:51:53;;;;;;;4.57;2.28;;;-9.50;99.90;;;;;;5093396;28;20030;-65
2021/11/26 05:54:19;;;;;;;6.35;2.40;;;-9.70;99.90;;;;;;5100292;28;20024;-63
2021/11/26 05:56:45;;;;;;;1.88;1.67;;;-9.80;99.90;;;;;;5111570;28;20040;-64
2021/11/26 05:59:10;;;;;;;5.75;2.25;;;-9.90;99.90;;;;;;5097966;28;20027;-64
2021/11/26 06:01:36;;;;;;;2.95;2.25;;;-10.10;99.90;;;;;;5095063;28;20024;-65
2021/11/26 06:04:02;;;;;;;5.38;2.42;;;-10.40;99.90;;;;;;5094281;28;20058;-65
2021/11/26 06:06:28;;;;;;;4.75;2.65;;;-10.50;99.90;;;;;;5094969;28;20024;-63
2021/11/26 06:08:53;;;;;;;4.93;2.35;;;-10.50;99.90;;;;;;5095090;28;20077;-63
2021/11/26 06:11:19;;;;;;;5.10;2.60;;;-10.50;99.90;;;;;;5092077;28;20032;-63
2021/11/26 06:13:45;;;;;;;3.10;2.35;;;-10.40;99.90;;;;;;5097245;28;20514;-64
2021/11/26 06:16:10;;;;;;;4.00;2.33;;;-10.40;99.90;;;;;;5100003;28;20532;-63
2021/11/26 06:18:36;;;;;;;3.10;2.25;;;-10.40;99.90;;;;;;5096895;28;20103;-64
2021/11/26 06:21:02;;;;;;;4.80;2.70;;;-10.40;99.90;;;;;;5103591;28;20093;-64
2021/11/26 06:23:28;;;;;;;3.75;2.38;;;-10.40;99.90;;;;;;5097418;28;20019;-63
2021/11/26 06:25:53;;;;;;;3.65;2.53;;;-10.30;99.90;;;;;;5112231;28;20031;-64
2021/11/26 06:28:19;;;;;;;3.17;2.28;;;-10.30;99.90;;;;;;5112046;28;20398;-64
2021/11/26 06:30:45;;;;;;;4.47;2.28;;;-10.20;99.90;;;;;;5111850;28;20032;-65
2021/11/26 06:33:10;;;;;;;4.97;2.67;;;-10.30;99.90;;;;;;5112054;28;20023;-64
2021/11/26 06:35:36;;;;;;;4.60;2.33;;;-9.90;99.90;;;;;;5111472;28;20019;-65
2021/11/26 06:38:02;;;;;;;2.38;1.80;;;-9.60;99.90;;;;;;5108843;28;20020;-65
2021/11/26 06:40:28;;;;;;;4.20;2.40;;;-9.20;99.90;;;;;;5108664;28;20112;-64
2021/11/26 06:42:54;;;;;;;3.60;2.20;;;-9.50;99.90;;;;;;5101193;28;20074;-65
2021/11/26 06:45:21;;;;;;;4.28;2.22;;;-9.70;99.90;;;;;;5091826;28;20028;-64
2021/11/26 06:47:47;;;;;;;3.88;2.30;;;-9.80;99.90;;;;;;5093601;28;20388;-64
2021/11/26 06:50:14;;;;;;;5.35;2.20;;;-9.90;99.90;;;;;;5096436;28;20483;-64
2021/11/26 06:52:40;;;;;;;3.63;2.60;;;-10.00;99.90;;;;;;5093621;28;20111;-64
2021/11/26 06:55:08;;;;;;;5.03;2.50;;;-10.10;99.90;;;;;;5093953;28;20034;-64
2021/11/26 06:57:36;;;;;;;6.15;2.15;;;-10.10;99.90;;;;;;5105629;28;20156;-65
2021/11/26 07:00:05;;;;;;;3.70;2.25;;;-10.20;99.90;;;;;;5111818;28;20069;-65
2021/11/26 07:02:30;;;;;;;5.88;2.53;;;-10.10;99.90;;;;;;5111958;28;20051;-66
2021/11/26 07:04:56;;;;;;;3.75;2.35;;;-10.10;99.90;;;;;;5110259;28;20459;-65
2021/11/26 07:07:22;;;;;;;5.30;2.58;;;-10.10;99.90;;;;;;5111723;28;20490;-66
2021/11/26 07:09:48;;;;;;;12.82;2.65;;;-10.10;99.90;;;;;;5115365;28;20024;-65
2021/11/26 07:12:13;;;;;;;6.78;2.60;;;-10.10;99.90;;;;;;5108305;28;20028;-66
2021/11/26 07:14:41;;;;;;;6.85;2.75;;;-10.20;99.90;;;;;;5096005;28;20020;-66
2021/11/26 07:17:07;;;;;;;7.30;2.70;;;-10.20;99.90;;;;;;5096794;28;20019;-64
2021/11/26 07:19:33;;;;;;;9.45;2.50;;;-10.20;99.90;;;;;;5095672;28;20016;-64
2021/11/26 07:22:00;;;;;;;6.18;3.03;;;-10.30;99.90;;;;;;5101682;28;20546;-64
2021/11/26 07:24:26;;;;;;;6.72;2.70;;;-10.30;99.90;;;;;;5115541;28;20023;-64
2021/11/26 07:26:52;;;;;;;9.75;3.00;;;-10.30;99.90;;;;;;5107401;28;20528;-64
2021/11/26 07:29:17;;;;;;;10.02;3.13;;;-10.30;99.90;;;;;;5097865;28;20028;-65
2021/11/26 07:31:43;;;;;;;5.70;2.90;;;-10.30;99.90;;;;;;5109424;28;20043;-65
2021/11/26 07:34:09;;;;;;;6.90;2.90;;;-10.30;99.90;;;;;;5102645;28;20051;-70
2021/11/26 07:36:35;;;;;;;6.35;2.35;;;-10.40;99.90;;;;;;5097176;28;20028;-65
2021/11/26 07:39:02;;;;;;;4.57;2.95;;;-10.50;99.90;;;;;;5114863;28;20486;-65
2021/11/26 07:41:27;;;;;;;3.97;2.50;;;-10.60;99.90;;;;;;5104169;28;20031;-66
2021/11/26 07:43:53;;;;;;;3.83;3.08;;;-10.60;99.90;;;;;;5096585;28;20051;-65
2021/11/26 07:46:19;;;;;;;5.43;2.75;;;-10.70;99.90;;;;;;5100889;28;20334;-65
2021/11/26 07:48:46;;;;;;;3.35;2.40;;;-10.70;99.90;;;;;;5096235;28;20077;-64
2021/11/26 07:51:11;;;;;;;3.15;2.20;;;-10.70;99.90;;;;;;5094938;28;20133;-65
2021/11/26 07:53:37;;;;;;;4.38;2.20;;;-10.80;99.60;;;;;;5095842;27;20048;-64
2021/11/26 07:56:03;;;;;;;2.50;2.22;;;-10.80;99.90;;;;;;5101310;27;20336;-65
2021/11/26 07:58:29;;;;;;;3.95;2.70;;;-10.80;99.90;;;;;;5099766;28;20024;-64
2021/11/26 08:00:54;;;;;;;5.07;3.00;;;-10.80;99.90;;;;;;5098280;28;20030;-64
2021/11/26 08:03:21;;;;;;;8.27;2.95;;;-10.90;99.90;;;;;;5096684;28;20031;-63
2021/11/26 08:05:51;;;;;;;2.60;2.30;;;-11.00;99.90;;;;;;5101901;27;20479;-63
2021/11/26 08:08:17;;;;;;;4.72;3.20;;;-11.10;99.90;;;;;;5099779;27;20059;-63
2021/11/26 08:10:42;;;;;;;5.18;3.33;;;-11.20;99.90;;;;;;5097300;28;20440;-64
2021/11/26 08:13:08;;;;;;;2.60;2.38;;;-11.20;99.90;;;;;;5097006;28;20080;-65
2021/11/26 08:15:35;;;;;;;6.28;3.15;;;-11.20;99.90;;;;;;5097302;27;20415;-64
2021/11/26 08:18:03;;;;;;;3.70;2.33;;;-11.20;99.90;;;;;;5109230;28;20016;-64
2021/11/26 08:20:29;;;;;;;4.78;2.58;;;-11.30;99.90;;;;;;5107818;28;20352;-64
2021/11/26 08:22:56;;;;;;;4.25;2.33;;;-11.30;99.90;;;;;;5098250;28;20081;-64
2021/11/26 08:25:24;;;;;;;3.10;2.38;;;-11.30;99.90;;;;;;5113296;28;20036;-64
2021/11/26 08:27:52;;;;;;;3.97;2.92;;;-11.30;99.90;;;;;;5103563;28;20490;-64
2021/11/26 08:30:18;;;;;;;6.43;3.72;;;-11.30;99.90;;;;;;5098569;28;20047;-64
2021/11/26 08:32:44;;;;;;;9.07;3.50;;;-11.40;99.90;;;;;;5106831;28;20027;-64
2021/11/26 08:35:11;;;;;;;6.28;3.17;;;-11.40;99.90;;;;;;5113753;28;20027;-64
2021/11/26 08:37:37;;;;;;;2.97;2.38;;;-11.50;99.90;;;;;;5114016;28;20344;-64
2021/11/26 08:40:05;;;;;;;5.32;2.90;;;-11.50;99.90;;;;;;5112916;28;20020;-64
2021/11/26 08:42:30;;;;;;;3.60;2.40;;;-11.50;99.90;;;;;;5112795;28;20015;-64
2021/11/26 08:44:56;;;;;;;7.38;3.00;;;-11.50;99.90;;;;;;5113670;28;20604;-64
2021/11/26 08:47:23;;;;;;;3.83;2.15;;;-11.40;99.90;;;;;;5113754;28;20421;-64
2021/11/26 08:49:48;;;;;;;7.25;3.13;;;-11.20;99.90;;;;;;5113339;28;20194;-65
2021/11/26 08:52:14;;;;;;;3.33;2.33;;;-11.20;99.90;;;;;;5113937;28;20120;-64
2021/11/26 08:54:41;;;;;;;6.88;3.60;;;-10.30;99.90;;;;;;5113374;28;20016;-64
2021/11/26 08:57:08;;;;;;;10.60;3.85;;;-10.00;99.90;;;;;;5112396;28;20442;-64
2021/11/26 08:59:33;;;;;;;9.65;4.38;;;-9.20;99.90;;;;;;5096459;28;20027;-64
2021/11/26 09:01:59;;;;;;;4.97;3.13;;;-9.00;99.90;;;;;;5102239;28;20159;-64
2021/11/26 09:04:25;;;;;;;5.53;3.15;;;-9.80;99.90;;;;;;5113312;28;20483;-63
2021/11/26 09:06:52;;;;;;;3.20;2.85;;;-10.40;99.90;;;;;;5113455;28;20493;-64
2021/11/26 09:09:19;;;;;;;3.97;2.17;;;-10.70;99.90;;;;;;5096226;28;20028;-63
2021/11/26 09:11:45;;;;;;;5.22;2.58;;;-11.00;99.90;;;;;;5097932;28;20103;-63
2021/11/26 09:14:11;;;;;;;5.53;2.33;;;-11.20;99.90;;;;;;5099850;28;20020;-66
2021/11/26 09:16:37;;;;;;;6.53;2.65;;;-11.30;99.90;;;;;;5100902;28;20489;-65
2021/11/26 09:19:04;;;;;;;3.13;2.63;;;-11.40;99.90;;;;;;5098483;28;20051;-65
2021/11/26 09:21:30;;;;;;;4.43;2.25;;;-11.40;99.90;;;;;;5104936;28;20020;-66
2021/11/26 09:23:56;;;;;;;7.43;2.63;;;-11.20;99.90;;;;;;5094747;28;20028;-65
2021/11/26 09:26:22;;;;;;;4.63;2.97;;;-8.70;99.90;;;;;;5094977;28;20089;-64
2021/11/26 09:28:49;;;;;;;2.95;2.17;;;-7.50;99.90;;;;;;5101016;28;20110;-64
2021/11/26 09:31:16;;;;;;;4.80;2.33;;;-8.50;99.90;;;;;;5109343;28;20027;-64
2021/11/26 09:33:43;;;;;;;2.50;2.17;;;-9.60;99.90;;;;;;5111429;28;20047;-63
2021/11/26 09:36:10;;;;;;;2.97;2.25;;;-10.30;99.90;;;;;;5108477;27;20035;-64
2021/11/26 09:38:38;;;;;;;2.92;2.03;;;-10.60;99.90;;;;;;5109103;28;20012;-64
2021/11/26 09:41:06;;;;;;;3.65;2.25;;;-10.80;99.90;;;;;;5113059;28;20026;-64
2021/11/26 09:43:34;;;;;;;3.72;2.00;;;-10.90;99.90;;;;;;5109010;28;20035;-64
2021/11/26 09:46:02;;;;;;;5.68;2.83;;;-11.00;99.90;;;;;;5112777;28;20080;-64
2021/11/26 09:48:28;;;;;;;2.88;2.40;;;-11.00;99.90;;;;;;5112773;28;20080;-64
2021/11/26 09:50:54;;;;;;;6.07;2.30;;;-11.00;99.90;;;;;;5112099;28;20039;-63
2021/11/26 09:53:23;;;;;;;4.70;2.38;;;-11.10;99.90;;;;;;5100655;28;20016;-64
2021/11/26 09:56:04;;;;;;;6.00;2.90;;;-11.10;99.90;;;;;;5112093;28;20019;-64
2021/11/26 09:58:31;;;;;;;;;;;-11.10;99.90;;;;;;5113123;28;20035;-64
2021/11/26 10:00:58;;;;;;;2.03;1.80;;;-11.10;99.90;;;;;;5106714;28;19911;-64
2021/11/26 10:03:41;;;;;;;7.20;3.70;;;-11.10;99.90;;;;;;5102398;28;20030;-64
2021/11/26 10:06:37;;;;;;;2.45;2.15;;;-11.10;99.90;;;;;;5095946;28;20111;-64
2021/11/26 10:09:15;;;;;;;2.75;2.22;;;-11.10;99.90;;;;;;5112306;28;20103;-64
2021/11/26 10:11:45;;;;;;;5.45;2.63;;;-11.20;99.90;;;;;;5112297;28;20028;-64
2021/11/26 10:14:12;;;;;;;;;;;-11.10;99.90;;;;;;5112852;28;20016;-64
2021/11/26 10:17:01;;;;;;;3.88;2.67;;;-11.20;99.90;;;;;;5111975;28;19904;-64
2021/11/26 10:19:42;;;;;;;5.82;2.50;;;-11.10;99.90;;;;;;5112224;28;20023;-64
2021/11/26 10:22:24;;;;;;;6.88;2.70;;;-11.10;99.90;;;;;;5105416;28;20111;-64
2021/11/26 10:25:13;;;;;;;4.40;2.50;;;-11.10;99.90;;;;;;5106906;28;20818;-64
2021/11/26 10:27:43;;;;;;;4.10;2.53;;;-11.10;99.90;;;;;;5112122;28;20035;-64
2021/11/26 10:30:22;;;;;;;5.25;2.40;;;-11.10;99.90;;;;;;5111888;28;20763;-64
2021/11/26 10:33:05;;;;;;;4.50;2.50;;;-11.10;99.90;;;;;;5111986;28;20030;-64
2021/11/26 10:35:42;;;;;;;3.20;2.65;;;-11.00;99.90;;;;;;5101722;28;20024;-64
2021/11/26 10:38:13;;;;;;;4.50;2.33;;;-11.00;99.90;;;;;;5099744;28;20028;-65
2021/11/26 10:40:44;;;;;;;3.97;2.60;;;-11.00;99.90;;;;;;5103373;28;20028;-64
2021/11/26 10:43:19;;;;;;;6.60;3.25;;;-10.90;99.90;;;;;;5106949;28;20028;-65
2021/11/26 10:57:01;;;;;;;5.32;2.88;;;-10.80;99.90;;;;;;5101479;28;20506;-65
2021/11/26 10:59:36;;;;;;;6.70;2.75;;;-10.80;99.90;;;;;;5106374;28;20066;-65
2021/11/26 11:02:03;;;;;;;3.65;2.30;;;-10.80;99.90;;;;;;5096368;28;20460;-65
2021/11/26 11:04:30;;;;;;;3.42;2.38;;;-10.70;99.90;;;;;;5111059;28;20126;-65
2021/11/26 11:07:06;;;;;;;3.45;2.53;;;-10.80;99.90;;;;;;5101653;28;20415;-66
2021/11/26 11:09:51;;;;;;;4.68;2.22;;;-10.80;99.90;;;;;;5115635;28;20055;-64
2021/11/26 11:12:17;;;;;;;4.38;2.58;;;-10.80;99.90;;;;;;5109906;28;20019;-65
2021/11/26 11:14:57;;;;;;;6.60;2.92;;;-10.80;99.90;;;;;;5101041;28;20073;-64
2021/11/26 11:17:27;;;;;;;2.83;2.10;;;-10.80;99.90;;;;;;5103486;28;20027;-64
2021/11/26 11:19:55;;;;;;;2.78;2.50;;;-10.70;99.90;;;;;;5115592;28;20054;-65
2021/11/26 11:22:21;;;;;;;4.88;2.58;;;-10.70;99.90;;;;;;5115690;28;20020;-65
2021/11/26 11:24:47;;;;;;;4.82;2.22;;;-10.70;99.90;;;;;;5113089;28;20023;-66
2021/11/26 11:27:13;;;;;;;3.30;2.53;;;-9.90;99.90;;;;;;5103902;28;20023;-64
2021/11/26 11:29:40;;;;;;;3.10;2.17;;;-9.00;99.90;;;;;;5115355;28;20073;-64
2021/11/26 11:32:05;;;;;;;2.85;2.20;;;-9.00;99.90;;;;;;5115238;28;20031;-64
2021/11/26 11:34:32;;;;;;;2.40;2.20;;;-9.40;99.90;;;;;;5111659;28;20028;-64
2021/11/26 11:36:59;;;;;;;2.85;2.30;;;-9.70;99.90;;;;;;5113750;28;20442;-64
2021/11/26 11:39:26;;;;;;;3.45;2.13;;;-9.90;99.90;;;;;;5115048;28;20020;-64
2021/11/26 11:41:59;;;;;;;2.50;2.20;;;-10.00;99.90;;;;;;5112650;28;20034;-64
2021/11/26 11:44:31;;;;;;;2.28;2.08;;;-10.00;99.90;;;;;;5114778;28;20095;-64
2021/11/26 11:46:59;;;;;;;5.05;2.30;;;-10.10;99.90;;;;;;5115012;28;20081;-65
2021/11/26 11:49:30;;;;;;;6.45;2.55;;;-9.10;99.90;;;;;;5114695;28;20019;-65
2021/11/26 11:51:58;;;;;;;4.10;2.35;;;-9.00;99.90;;;;;;5107449;28;20035;-65
2021/11/26 11:54:35;;;;;;;4.35;2.00;;;-9.40;99.90;;;;;;5110393;28;20035;-65
2021/11/26 11:57:01;;;;;;;3.72;2.33;;;-9.70;99.90;;;;;;5102564;28;20507;-65
2021/11/26 11:59:35;;;;;;;5.32;2.53;;;-10.00;99.90;;;;;;5098844;28;20043;-66
2021/11/26 12:02:07;;;;;;;2.50;1.83;;;-10.10;99.90;;;;;;5114567;28;20122;-66
2021/11/26 12:04:44;;;;;;;4.97;2.50;;;-10.30;99.90;;;;;;5113029;28;20125;-66
2021/11/26 12:07:28;;;;;;;3.63;2.28;;;-10.40;99.90;;;;;;5101245;28;20043;-66
2021/11/26 12:10:13;;;;;;;2.33;1.80;;;-10.40;99.90;;;;;;5111302;28;20059;-66
2021/11/26 12:12:48;;;;;;;4.10;2.22;;;-10.60;99.90;;;;;;5098422;28;20108;-66
2021/11/26 12:15:31;;;;;;;4.03;2.25;;;-10.70;99.90;;;;;;5102649;28;20052;-66
2021/11/26 12:18:05;;;;;;;2.42;2.00;;;-10.70;99.90;;;;;;5108390;28;20034;-66
2021/11/26 12:20:33;;;;;;;3.55;2.40;;;-10.80;99.90;;;;;;5114213;28;20011;-66
2021/11/26 12:23:11;;;;;;;3.05;2.50;;;-10.80;99.90;;;;;;5112533;28;20498;-66
2021/11/26 12:28:12;;;;;;;3.55;2.30;;;-10.90;99.90;;;;;;5114203;28;20072;-65
2021/11/26 12:30:41;;;;;;;3.78;2.25;;;-11.00;99.90;;;;;;5102108;28;20031;-65
2021/11/26 12:33:17;;;;;;;3.83;2.13;;;-11.00;99.90;;;;;;5113866;28;20023;-65
2021/11/26 12:35:54;;;;;;;2.88;2.20;;;-11.00;99.90;;;;;;5101432;28;20023;-66
2021/11/26 12:38:20;;;;;;;3.33;1.83;;;-11.00;99.90;;;;;;5113942;28;20015;-66
2021/11/26 12:40:46;;;;;;;3.40;2.10;;;-10.90;99.90;;;;;;5114100;28;20442;-65
2021/11/26 12:43:13;;;;;;;3.53;2.10;;;-11.00;99.90;;;;;;5113900;28;20106;-66
2021/11/26 12:45:39;;;;;;;3.42;2.33;;;-11.00;99.90;;;;;;5113456;28;20072;-66
2021/11/26 12:48:20;;;;;;;3.10;2.08;;;-11.10;99.90;;;;;;5113843;28;20027;-65
2021/11/26 12:51:04;;;;;;;2.42;2.03;;;-11.10;99.90;;;;;;5113374;28;20032;-65
2021/11/26 12:53:31;;;;;;;5.93;2.55;;;-11.10;99.90;;;;;;5113653;28;20027;-66
2021/11/26 12:56:06;;;;;;;2.05;1.80;;;-11.10;99.90;;;;;;5113166;28;20035;-65
2021/11/26 12:58:41;;;;;;;1.88;1.77;;;-11.10;99.90;;;;;;5109423;27;20024;-64
2021/11/26 13:01:08;;;;;;;4.32;2.40;;;-8.80;99.90;;;;;;5096615;28;20566;-68
2021/11/26 13:03:49;;;;;;;3.28;2.20;;;-7.60;99.90;;;;;;5101178;28;20054;-66
2021/11/26 13:06:26;;;;;;;4.18;2.75;;;-8.50;99.90;;;;;;5112427;28;20528;-66
2021/11/26 13:09:06;;;;;;;7.07;2.60;;;-9.40;99.90;;;;;;5113217;28;20547;-65
2021/11/26 13:11:39;;;;;;;;;;;-10.00;99.90;;;;;;5099632;28;20153;-65
2021/11/26 13:14:06;;;;;;;3.67;1.83;;;-10.40;99.90;;;;;;5102200;28;19930;-66
2021/11/26 13:16:32;;;;;;;4.63;2.10;;;-10.60;99.90;;;;;;5111452;28;20035;-65
2021/11/26 13:18:58;;;;;;;2.83;2.30;;;-10.70;99.90;;;;;;5104367;28;20020;-65
2021/11/26 13:21:24;;;;;;;2.17;1.98;;;-10.90;99.90;;;;;;5109404;28;20028;-66
2021/11/26 13:23:50;;;;;;;2.72;2.15;;;-11.00;99.90;;;;;;5112886;28;20391;-65
2021/11/26 13:26:17;;;;;;;3.65;2.00;;;-11.10;99.90;;;;;;5112922;28;20027;-66
2021/11/26 13:28:47;;;;;;;3.60;2.22;;;-11.20;99.90;;;;;;5113290;28;20107;-65